Time;durP1;ratioP1;P1;durP2;ratioP2;P2;SDS_P1;SDS_P2;PMS_P1;PMS_P2;Temp;Humidity;BMP_temperature;BMP_pressure;BME280_temperature;BME280_humidity;BME280_pressure;Samples;Min_cycle;Max_cycle;Signal;HPM_P1;HPM_P2
2022/04/26 03:37:06;;;;;;;21.50;19.20;;;;;;;12.13;98.29;97667.91;4124951;28;21010;-85
2022/04/26 03:39:10;;;;;;;22.20;18.97;;;;;;;12.12;98.05;97674.09;4141173;28;20700;-85
2022/04/26 03:41:13;;;;;;;22.90;19.43;;;;;;;12.13;97.98;97680.97;4139515;28;20622;-85
2022/04/26 03:43:19;;;;;;;21.33;17.90;;;;;;;12.13;98.06;97690.63;4121941;28;20651;-85
2022/04/26 03:45:22;;;;;;;22.30;18.03;;;;;;;12.11;98.46;97687.31;4142718;28;20631;-85
2022/04/26 03:47:27;;;;;;;22.40;18.43;;;;;;;12.11;98.23;97687.31;4144140;28;20658;-85
2022/04/26 03:49:31;;;;;;;21.73;17.60;;;;;;;12.09;97.45;97692.66;4144073;28;20657;-85
2022/04/26 03:51:36;;;;;;;19.60;16.17;;;;;;;12.07;97.83;97681.50;4129104;28;20647;-85
2022/04/26 03:53:40;;;;;;;18.60;15.03;;;;;;;12.08;96.96;97687.53;4109714;28;20748;-85
2022/04/26 03:55:43;;;;;;;17.77;15.57;;;;;;;12.06;98.20;97687.66;4111309;28;20641;-85
2022/04/26 03:57:47;;;;;;;18.77;15.60;;;;;;;12.07;99.02;97689.34;4125585;28;20637;-85
2022/04/26 03:59:52;;;;;;;19.23;15.43;;;;;;;12.06;98.64;97692.06;4126584;28;20681;-85
2022/04/26 04:01:56;;;;;;;17.30;14.83;;;;;;;12.03;97.55;97685.31;4125834;28;21289;-85
2022/04/26 04:03:59;;;;;;;18.90;15.07;;;;;;;12.04;96.78;97696.56;4142596;28;20670;-85
2022/04/26 04:06:03;;;;;;;16.60;13.40;;;;;;;12.03;98.53;97698.38;4143236;28;20669;-85
2022/04/26 04:08:08;;;;;;;13.23;11.87;;;;;;;12.04;96.79;97699.19;4123170;28;20648;-85
2022/04/26 04:10:11;;;;;;;15.63;13.20;;;;;;;12.03;97.53;97706.22;4123789;28;20624;-85
2022/04/26 04:12:15;;;;;;;14.60;13.00;;;;;;;12.02;96.18;97698.50;4145608;28;20713;-84
2022/04/26 04:14:18;;;;;;;14.60;12.60;;;;;;;12.05;96.74;97698.25;4110104;28;21081;-85
2022/04/26 04:16:22;;;;;;;14.67;12.90;;;;;;;12.04;96.86;97700.03;4131065;28;20623;-84
2022/04/26 04:20:46;;;;;;;14.63;12.30;;;;;;;12.00;96.03;97698.63;4127611;28;20738;-85
2022/04/26 04:22:49;;;;;;;13.63;12.10;;;;;;;11.99;96.66;97702.19;4129191;28;20713;-84
2022/04/26 04:24:54;;;;;;;13.03;11.53;;;;;;;11.95;96.33;97700.78;4141917;28;20728;-85
2022/04/26 04:26:57;;;;;;;13.37;11.60;;;;;;;11.95;96.51;97713.84;4121055;28;21461;-85
2022/04/26 04:29:01;;;;;;;13.73;11.80;;;;;;;11.94;96.29;97709.56;4128586;28;20619;-85
2022/04/26 04:31:04;;;;;;;12.83;11.43;;;;;;;11.96;96.47;97722.50;4145270;28;21342;-84
2022/04/26 04:33:08;;;;;;;14.00;12.07;;;;;;;11.95;97.55;97715.59;4127358;28;21335;-85
2022/04/26 04:35:12;;;;;;;13.13;11.57;;;;;;;11.93;97.54;97720.13;4144867;28;20998;-85
2022/04/26 04:37:15;;;;;;;13.07;11.67;;;;;;;11.94;96.02;97725.25;4145368;28;20627;-84
2022/04/26 04:39:20;;;;;;;14.20;12.30;;;;;;;11.94;96.81;97720.00;4129317;28;20658;-85
2022/04/26 04:41:25;;;;;;;12.30;11.00;;;;;;;11.95;97.04;97724.31;4142835;28;20629;-85
2022/04/26 04:43:29;;;;;;;14.27;12.20;;;;;;;11.96;96.23;97727.72;4143353;28;21218;-85
2022/04/26 04:45:32;;;;;;;13.37;11.97;;;;;;;11.95;96.77;97729.53;4126525;28;21238;-85
2022/04/26 04:47:36;;;;;;;14.00;12.13;;;;;;;11.95;97.59;97726.91;4139750;28;20992;-85
2022/04/26 04:49:39;;;;;;;14.70;12.73;;;;;;;11.94;96.89;97738.31;4142656;28;20634;-85
2022/04/26 04:51:42;;;;;;;13.40;11.80;;;;;;;11.96;98.22;97735.56;4141847;28;20673;-85
2022/04/26 04:53:46;;;;;;;15.17;12.30;;;;;;;11.98;96.50;97734.50;4121796;28;21079;-85
2022/04/26 04:55:49;;;;;;;14.23;12.53;;;;;;;11.99;96.21;97737.94;4143291;28;20667;-85
2022/04/26 04:57:54;;;;;;;14.70;13.10;;;;;;;11.99;97.58;97743.16;4127077;28;20690;-85
2022/04/26 05:00:00;;;;;;;15.50;13.03;;;;;;;11.97;97.32;97740.69;4140299;28;20713;-85
2022/04/26 05:02:04;;;;;;;13.53;11.70;;;;;;;12.00;97.44;97739.63;4127432;28;20637;-85
2022/04/26 05:04:08;;;;;;;13.10;11.70;;;;;;;11.99;96.24;97738.75;4141972;28;20669;-85
2022/04/26 05:06:13;;;;;;;15.43;13.37;;;;;;;12.00;96.66;97740.44;4138890;28;20635;-85
2022/04/26 05:08:19;;;;;;;14.73;12.30;;;;;;;12.00;97.28;97743.06;4142947;28;20726;-85
2022/04/26 05:10:22;;;;;;;14.13;12.70;;;;;;;12.00;95.92;97745.66;4143352;28;20672;-85
2022/04/26 05:12:26;;;;;;;12.77;11.30;;;;;;;12.01;97.77;97746.47;4129442;28;20719;-85
2022/04/26 05:14:32;;;;;;;14.30;12.53;;;;;;;12.00;95.99;97737.00;4144222;28;20641;-85
2022/04/26 05:16:35;;;;;;;17.67;12.90;;;;;;;11.99;97.64;97744.00;4144232;28;21056;-86
2022/04/26 05:18:39;;;;;;;16.17;12.57;;;;;;;12.00;96.11;97742.22;4127702;28;20643;-86
2022/04/26 05:20:43;;;;;;;13.00;11.70;;;;;;;12.00;97.89;97729.97;4128287;28;20623;-86
2022/04/26 05:25:08;;;;;;;14.97;11.50;;;;;;;12.02;97.19;97735.91;4145069;28;20630;-86
2022/04/26 05:27:11;;;;;;;13.50;11.43;;;;;;;12.01;97.08;97731.66;4151696;28;20704;-86
2022/04/26 05:29:15;;;;;;;11.23;10.03;;;;;;;12.02;95.98;97742.94;4132522;28;20632;-86
2022/04/26 05:31:20;;;;;;;12.07;9.80;;;;;;;12.02;95.86;97732.47;4132527;28;20638;-86
2022/04/26 05:33:25;;;;;;;10.87;9.57;;;;;;;12.05;96.50;97732.22;4135724;28;20631;-85
2022/04/26 05:35:29;;;;;;;10.13;9.13;;;;;;;12.04;96.58;97728.78;4147915;28;20633;-85
2022/04/26 05:37:32;;;;;;;11.00;9.90;;;;;;;12.06;97.05;97741.75;4133297;28;20638;-85
2022/04/26 05:39:35;;;;;;;12.00;9.97;;;;;;;12.05;96.08;97738.28;4143099;28;20723;-85
2022/04/26 05:41:40;;;;;;;10.13;9.13;;;;;;;12.06;96.63;97741.75;4161245;28;20686;-86
2022/04/26 05:43:44;;;;;;;13.03;10.30;;;;;;;12.07;96.82;97746.84;4145043;28;21229;-86
2022/04/26 05:45:47;;;;;;;11.40;10.20;;;;;;;12.07;96.91;97744.25;4148254;28;20625;-86
2022/04/26 05:47:53;;;;;;;10.67;9.60;;;;;;;12.08;95.38;97745.06;4146678;28;20631;-86
2022/04/26 05:49:56;;;;;;;9.90;8.63;;;;;;;12.09;95.41;97744.94;4147075;28;20784;-86
2022/04/26 05:52:00;;;;;;;10.60;9.50;;;;;;;12.11;96.87;97737.78;4144155;28;20661;-85
2022/04/26 05:54:03;;;;;;;12.00;9.90;;;;;;;12.15;97.16;97746.22;4132863;28;20744;-87
2022/04/26 05:56:12;;;;;;;10.47;9.37;;;;;;;12.18;95.81;97743.34;4129129;28;20632;-88
2022/04/26 05:58:15;;;;;;;11.43;9.70;;;;;;;12.21;96.51;97748.34;4126032;28;20703;-88
2022/04/26 06:00:20;;;;;;;11.27;10.07;;;;;;;12.25;96.21;97750.56;4130131;28;20661;-88
2022/04/26 06:02:23;;;;;;;10.83;9.53;;;;;;;12.27;96.89;97743.47;4146802;28;20634;-88
2022/04/26 06:04:29;;;;;;;9.17;8.13;;;;;;;12.29;94.77;97744.97;4143449;28;20995;-88
2022/04/26 06:06:32;;;;;;;9.70;8.70;;;;;;;12.31;94.67;97744.84;4129404;28;21046;-88
2022/04/26 06:08:36;;;;;;;9.97;8.97;;;;;;;12.33;94.90;97751.63;4145753;28;21197;-88
2022/04/26 06:10:39;;;;;;;8.70;7.80;;;;;;;12.35;95.34;97746.28;4132468;28;21205;-88
2022/04/26 06:12:44;;;;;;;9.73;8.73;;;;;;;12.37;96.02;97754.81;4125617;28;21379;-90
2022/04/26 06:14:48;;;;;;;10.70;8.53;;;;;;;12.37;95.35;97757.44;4139860;28;20634;-89
2022/04/26 06:16:57;;;;;;;18.63;15.27;;;;;;;12.40;95.42;97754.56;4146442;28;20653;-89
2022/04/26 06:19:01;;;;;;;8.73;7.83;;;;;;;12.37;95.14;97747.81;4128846;28;20694;-89
2022/04/26 06:21:05;;;;;;;8.93;7.50;;;;;;;12.42;96.06;97757.91;4142736;28;20709;-90
2022/04/26 06:23:09;;;;;;;8.90;8.00;;;;;;;12.43;94.92;97768.25;4125832;28;20665;-88
2022/04/26 06:25:13;;;;;;;8.23;7.43;;;;;;;12.44;96.03;97764.66;4141461;28;20713;-88
2022/04/26 06:27:16;;;;;;;8.90;8.00;;;;;;;12.44;94.67;97766.47;4125349;28;20734;-87
2022/04/26 06:29:20;;;;;;;8.13;6.83;;;;;;;12.43;95.20;97765.66;4125129;28;20685;-87
2022/04/26 06:31:23;;;;;;;8.00;7.20;;;;;;;12.44;94.88;97767.28;4125775;28;20692;-87
2022/04/26 06:33:27;;;;;;;8.13;7.33;;;;;;;12.43;94.64;97764.78;4142151;28;20757;-87
2022/04/26 06:35:30;;;;;;;8.30;7.50;;;;;;;12.43;96.24;97768.25;4142016;28;20623;-87
2022/04/26 06:37:35;;;;;;;8.50;7.60;;;;;;;12.43;95.13;97775.25;4125563;28;21293;-87
2022/04/26 06:39:38;;;;;;;8.40;7.60;;;;;;;12.42;95.28;97781.47;4127563;28;20631;-87
2022/04/26 06:41:41;;;;;;;8.10;7.30;;;;;;;12.43;96.09;97770.03;4141364;28;20630;-87
2022/04/26 06:43:46;;;;;;;9.77;8.77;;;;;;;12.43;96.04;97775.25;4129045;28;20634;-88
2022/04/26 06:45:50;;;;;;;9.53;8.53;;;;;;;12.43;95.53;97772.63;4126941;28;21120;-88
2022/04/26 06:47:54;;;;;;;8.97;8.07;;;;;;;12.43;95.22;97772.63;4127217;28;20632;-87
2022/04/26 06:49:58;;;;;;;8.97;8.00;;;;;;;12.43;95.26;97775.25;4121283;28;20727;-88
2022/04/26 06:52:01;;;;;;;9.03;7.80;;;;;;;12.43;95.28;97772.63;4141996;28;20705;-90
2022/04/26 06:54:06;;;;;;;8.80;7.90;;;;;;;12.42;95.63;97771.81;4138255;28;20717;-90
2022/04/26 06:56:10;;;;;;;24.97;21.13;;;;;;;12.43;95.46;97768.25;4119765;28;20631;-89
2022/04/26 06:58:13;;;;;;;9.23;8.10;;;;;;;12.45;95.79;97768.13;4121591;28;21134;-92
2022/04/26 07:00:19;;;;;;;9.13;7.30;;;;;;;12.46;95.73;97769.78;4139129;28;20738;-94
2022/04/26 07:02:25;;;;;;;8.70;7.83;;;;;;;12.47;95.76;97763.59;4130045;28;20627;-94
2022/04/26 07:04:29;;;;;;;8.70;7.67;;;;;;;12.51;95.84;97768.47;4133197;28;20863;-93
2022/04/26 07:06:34;;;;;;;7.90;7.10;;;;;;;12.52;94.14;97769.28;4125086;28;21221;-95
2022/04/26 07:08:40;;;;;;;7.73;6.93;;;;;;;12.51;94.17;97770.22;4141532;28;20673;-92
2022/04/26 07:10:45;;;;;;;9.37;8.33;;;;;;;12.52;94.78;97775.34;4126490;28;20631;-90
2022/04/26 07:12:48;;;;;;;42.30;31.67;;;;;;;12.53;94.29;97766.53;4141910;28;20639;-91
2022/04/26 07:14:52;;;;;;;9.10;7.80;;;;;;;12.52;94.50;97770.09;4140801;28;20631;-89
2022/04/26 07:16:55;;;;;;;21.53;16.70;;;;;;;12.54;94.20;97778.69;4111792;28;20721;-90
2022/04/26 07:18:59;;;;;;;10.50;9.40;;;;;;;12.50;95.05;97771.19;4128097;28;21242;-89
2022/04/26 07:21:02;;;;;;;9.07;8.17;;;;;;;12.48;95.01;97775.69;4140218;28;20671;-90
2022/04/26 07:23:06;;;;;;;9.40;8.40;;;;;;;12.48;95.64;97768.72;4147089;28;20631;-90
2022/04/26 07:25:11;;;;;;;8.60;7.70;;;;;;;12.46;94.51;97770.63;4147548;28;20670;-91
2022/04/26 07:27:16;;;;;;;7.70;6.97;;;;;;;12.46;95.22;97768.00;4144017;28;20618;-90
2022/04/26 07:29:19;;;;;;;8.20;7.10;;;;;;;12.46;94.48;97780.25;4127572;28;20707;-91
2022/04/26 07:31:23;;;;;;;7.30;6.60;;;;;;;12.46;95.00;97770.63;4146069;28;21028;-90
2022/04/26 07:35:54;;;;;;;10.07;8.97;;;;;;;12.50;94.49;97766.78;4114794;28;20643;-89
2022/04/26 07:38:05;;;;;;;9.73;8.73;;;;;;;12.46;94.59;97768.00;4107549;28;20702;-89
2022/04/26 07:40:10;;;;;;;9.03;8.13;;;;;;;12.43;95.24;97768.25;4145168;28;20626;-90
2022/04/26 07:42:15;;;;;;;10.77;9.67;;;;;;;12.42;93.38;97769.19;4126994;28;20644;-91
2022/04/26 07:44:19;;;;;;;11.07;9.90;;;;;;;12.37;95.18;97773.97;4130389;28;21220;-90
2022/04/26 07:46:22;;;;;;;14.53;9.67;;;;;;;12.24;94.84;97769.84;4129765;28;20643;-90
2022/04/26 07:48:26;;;;;;;11.87;10.63;;;;;;;12.24;94.72;97769.84;4145533;28;21210;-90
2022/04/26 07:50:30;;;;;;;13.10;11.70;;;;;;;12.23;94.64;97762.13;4143797;28;20707;-90
2022/04/26 07:52:34;;;;;;;14.10;11.63;;;;;;;12.25;95.20;97761.03;4130914;28;21202;-89
2022/04/26 07:54:37;;;;;;;18.90;14.77;;;;;;;12.29;95.45;97765.09;4125623;28;20631;-89
2022/04/26 07:56:41;;;;;;;9.70;8.50;;;;;;;12.30;94.63;97764.13;4146840;28;20651;-90
2022/04/26 07:58:45;;;;;;;9.67;8.33;;;;;;;12.27;94.11;97769.63;4146097;28;20642;-89
2022/04/26 08:00:49;;;;;;;10.03;8.57;;;;;;;12.25;94.43;97774.09;4128473;28;20656;-90
2022/04/26 08:02:52;;;;;;;8.60;7.03;;;;;;;12.28;93.43;97777.34;4126175;28;20652;-90
2022/04/26 08:05:01;;;;;;;8.67;6.33;;;;;;;12.28;93.49;97781.72;4143792;28;21408;-90
2022/04/26 08:07:04;;;;;;;7.07;6.37;;;;;;;12.27;92.74;97773.03;4143785;28;20642;-90
2022/04/26 08:09:08;;;;;;;5.20;4.70;;;;;;;12.27;91.33;97778.28;4142727;28;20634;-90
2022/04/26 08:11:13;;;;;;;6.63;5.93;;;;;;;12.20;91.29;97773.66;4129405;28;20627;-91
2022/04/26 08:13:16;;;;;;;6.60;5.40;;;;;;;12.21;91.06;97780.56;4126125;28;20666;-90
2022/04/26 08:15:21;;;;;;;8.13;6.87;;;;;;;12.12;91.70;97786.50;4145020;28;21080;-90
2022/04/26 08:17:24;;;;;;;6.00;5.00;;;;;;;12.07;92.13;97793.91;4129390;28;21291;-90
2022/04/26 08:19:28;;;;;;;6.10;5.50;;;;;;;12.06;91.56;97794.84;4126977;28;20630;-92
2022/04/26 08:21:32;;;;;;;5.77;5.20;;;;;;;12.12;92.11;97803.97;4143751;28;20624;-92
2022/04/26 08:27:22;;;;;;;5.40;4.60;;;;;;;12.18;94.51;97806.94;4142558;28;20811;-91
2022/04/26 08:28:20;;;;;;;5.03;4.53;;;;;;;12.26;93.16;97834.13;4120932;28;20631;-90
2022/04/26 08:30:26;;;;;;;5.80;5.23;;;;;;;12.28;93.96;97832.25;4141978;28;21101;-90
2022/04/26 08:32:38;;;;;;;6.03;5.43;;;;;;;12.30;94.33;97843.41;4143621;28;20662;-90
2022/04/26 08:34:42;;;;;;;7.30;6.60;;;;;;;12.31;93.55;97837.22;4127012;28;20761;-90
2022/04/26 08:36:46;;;;;;;6.73;6.03;;;;;;;12.37;94.30;97849.81;4128688;28;20641;-90
2022/04/26 08:38:49;;;;;;;8.57;7.23;;;;;;;12.46;92.95;97853.47;4139752;28;21244;-90
2022/04/26 08:40:53;;;;;;;7.53;6.50;;;;;;;12.51;93.39;97859.16;4124575;28;21029;-90
2022/04/26 08:42:59;;;;;;;6.63;5.83;;;;;;;12.55;92.51;97863.22;4129171;28;20679;-90
2022/04/26 08:45:05;;;;;;;6.67;5.90;;;;;;;12.58;93.80;97857.72;4123273;28;20640;-94
2022/04/26 08:51:52;;;;;;;12.60;10.53;;;;;;;12.72;92.84;97876.63;4130629;28;20625;-90
2022/04/26 08:53:55;;;;;;;10.13;8.53;;;;;;;12.77;93.37;97877.91;4126898;28;20720;-91
2022/04/26 08:56:01;;;;;;;9.00;8.10;;;;;;;12.76;91.54;97876.25;4144514;28;20626;-90
2022/04/26 08:58:06;;;;;;;10.17;8.80;;;;;;;12.80;93.62;97868.97;4138763;28;20631;-91
2022/04/26 09:00:12;;;;;;;15.30;13.70;;;;;;;12.90;92.65;97885.63;4128986;28;21046;-91
2022/04/26 09:02:19;;;;;;;13.40;12.00;;;;;;;12.96;92.54;97880.72;4142125;28;20646;-91
2022/04/26 09:04:25;;;;;;;14.27;12.77;;;;;;;13.08;91.71;97876.28;4126142;28;20685;-95
2022/04/26 09:06:40;;;;;;;13.63;11.70;;;;;;;13.23;92.79;97878.50;4146329;23;20624;-85
2022/04/26 09:08:48;;;;;;;19.83;11.90;;;;;;;13.40;92.28;97878.75;4161078;28;21068;-85
2022/04/26 09:10:51;;;;;;;15.70;13.47;;;;;;;13.60;90.82;97882.34;4176051;28;20752;-85
2022/04/26 09:13:04;;;;;;;12.80;11.40;;;;;;;13.82;90.92;97877.78;4176361;28;20636;-85
2022/04/26 09:15:16;;;;;;;13.20;11.80;;;;;;;13.94;89.17;97876.75;4162931;28;20687;-85
2022/04/26 09:17:21;;;;;;;12.73;11.40;;;;;;;13.98;88.51;97894.72;4162229;28;20642;-84
2022/04/26 09:19:43;;;;;;;13.87;12.37;;;;;;;13.98;88.92;97888.63;4161193;28;20639;-87
2022/04/26 09:21:54;;;;;;;14.37;12.87;;;;;;;13.91;88.63;97887.50;4160407;28;20781;-85
2022/04/26 09:23:59;;;;;;;14.20;12.70;;;;;;;13.86;87.87;97889.66;4172063;28;20671;-85
2022/04/26 09:26:07;;;;;;;13.13;11.83;;;;;;;13.78;87.93;97885.06;4174232;28;21223;-85
2022/04/26 09:28:20;;;;;;;14.93;12.70;;;;;;;13.69;87.12;97877.97;4173459;28;20630;-85
2022/04/26 09:30:29;;;;;;;15.57;13.97;;;;;;;13.64;87.86;97889.81;4159031;28;20651;-87
2022/04/26 09:32:44;;;;;;;14.33;12.83;;;;;;;13.59;88.39;97886.75;4157468;28;20694;-91
2022/04/26 09:34:48;;;;;;;15.20;13.23;;;;;;;13.58;88.66;97881.63;4158615;28;21247;-83
2022/04/26 09:36:51;;;;;;;16.00;14.30;;;;;;;13.57;88.54;97882.59;4155726;28;20742;-83
2022/04/26 09:38:56;;;;;;;15.50;13.57;;;;;;;13.39;87.92;97891.97;4159875;28;20861;-84
2022/04/26 09:41:01;;;;;;;15.40;13.80;;;;;;;13.18;89.32;97887.66;4161390;28;20635;-84
2022/04/26 09:43:14;;;;;;;17.50;14.20;;;;;;;12.99;90.42;97892.72;4160769;28;20646;-84
2022/04/26 09:45:18;;;;;;;19.43;14.87;;;;;;;12.84;90.48;97891.38;4172877;28;20721;-83
2022/04/26 09:47:36;;;;;;;15.10;13.50;;;;;;;12.84;91.48;97894.81;4159806;28;20660;-83
2022/04/26 09:49:40;;;;;;;16.50;13.90;;;;;;;12.91;92.10;97892.53;4159195;28;20631;-83
2022/04/26 09:51:44;;;;;;;20.87;15.00;;;;;;;12.94;90.75;97897.50;4159926;28;21295;-86
2022/04/26 09:53:47;;;;;;;16.60;14.43;;;;;;;12.92;91.41;97895.00;4173394;28;20651;-82
2022/04/26 09:55:51;;;;;;;16.00;14.37;;;;;;;12.84;90.91;97897.44;4158993;28;20649;-84
2022/04/26 09:57:56;;;;;;;16.70;14.87;;;;;;;12.75;90.11;97897.31;4155829;28;20634;-83
2022/04/26 10:00:00;;;;;;;16.77;14.53;;;;;;;12.67;90.49;97896.25;4158488;28;20639;-83
2022/04/26 10:02:14;;;;;;;20.60;17.80;;;;;;;12.69;90.40;97903.84;4157613;28;20637;-83
2022/04/26 10:04:20;;;;;;;23.87;20.10;;;;;;;12.78;91.39;97907.53;4155897;28;20663;-83
2022/04/26 10:06:25;;;;;;;18.90;16.90;;;;;;;12.86;92.16;97913.00;4160125;28;20704;-83
2022/04/26 10:08:32;;;;;;;19.20;17.03;;;;;;;12.93;92.58;97909.78;4156794;28;20634;-84
2022/04/26 10:10:35;;;;;;;17.23;15.43;;;;;;;13.02;92.58;97901.19;4141621;28;20690;-83
2022/04/26 10:12:40;;;;;;;17.40;15.63;;;;;;;13.10;91.31;97901.38;4142652;28;20664;-83
2022/04/26 10:14:44;;;;;;;16.93;15.00;;;;;;;13.21;91.46;97906.56;4140265;28;20658;-83
2022/04/26 10:16:48;;;;;;;16.30;14.60;;;;;;;13.32;89.78;97904.75;4143729;28;20681;-83
2022/04/26 10:18:52;;;;;;;19.27;17.27;;;;;;;13.76;91.04;97904.50;4159345;28;20704;-83
2022/04/26 10:20:55;;;;;;;17.77;15.97;;;;;;;14.23;89.64;97896.91;4157915;28;21248;-83
2022/04/26 10:23:01;;;;;;;17.23;15.43;;;;;;;14.59;86.74;97911.13;4141343;28;20690;-84
2022/04/26 10:25:13;;;;;;;16.47;14.83;;;;;;;14.89;86.06;97913.69;4124340;28;20732;-84
2022/04/26 10:27:18;;;;;;;17.80;15.90;;;;;;;15.07;84.93;97906.00;4130924;28;21232;-83
2022/04/26 10:29:23;;;;;;;17.93;16.03;;;;;;;15.27;87.00;97904.09;4135614;28;20753;-83
2022/04/26 10:31:37;;;;;;;19.37;17.37;;;;;;;15.28;81.85;97903.13;4144446;28;20799;-83
2022/04/26 10:33:42;;;;;;;18.30;16.40;;;;;;;15.27;81.29;97900.63;4134527;28;20636;-83
2022/04/26 10:35:45;;;;;;;16.53;14.90;;;;;;;15.40;81.75;97903.84;4140648;28;20735;-84
2022/04/26 10:38:11;;;;;;;18.23;16.30;;;;;;;15.64;80.35;97895.34;4137098;28;21188;-83
2022/04/26 10:40:15;;;;;;;17.97;16.07;;;;;;;15.95;84.53;97899.47;4142844;28;20680;-83
2022/04/26 10:42:29;;;;;;;17.77;15.97;;;;;;;16.33;84.10;97900.19;4140406;28;20638;-83
2022/04/26 10:44:38;;;;;;;18.33;16.37;;;;;;;16.74;83.44;97897.91;4121551;28;20723;-83
2022/04/26 10:46:42;;;;;;;16.63;14.93;;;;;;;16.91;78.22;97902.38;4142984;28;20641;-83
2022/04/26 10:48:45;;;;;;;16.47;14.87;;;;;;;16.65;76.68;97906.69;4141587;28;20781;-83
2022/04/26 10:50:49;;;;;;;16.40;14.53;;;;;;;16.17;75.64;97904.38;4137066;28;20629;-83
2022/04/26 10:52:54;;;;;;;18.70;14.90;;;;;;;15.88;77.42;97901.00;4138631;28;21189;-83
2022/04/26 10:55:05;;;;;;;17.23;15.43;;;;;;;15.60;79.55;97915.00;4143594;28;21040;-83
2022/04/26 10:57:08;;;;;;;16.30;14.60;;;;;;;15.43;79.94;97903.56;4157698;28;21233;-83
2022/04/26 10:59:13;;;;;;;17.83;15.97;;;;;;;15.30;83.17;97903.00;4162582;28;20633;-83
2022/04/26 11:01:16;;;;;;;19.53;15.47;;;;;;;15.10;81.76;97903.91;4163598;28;20682;-83
2022/04/26 11:03:21;;;;;;;17.27;15.37;;;;;;;14.93;83.28;97907.22;4144972;28;21078;-83
2022/04/26 11:05:25;;;;;;;18.00;16.10;;;;;;;14.80;83.79;97906.63;4143357;28;20684;-83
2022/04/26 11:07:29;;;;;;;17.80;16.00;;;;;;;14.74;84.10;97912.41;4147222;28;21270;-83
2022/04/26 11:09:32;;;;;;;18.90;17.00;;;;;;;14.71;85.35;97911.88;4143915;28;20661;-83
2022/04/26 11:11:51;;;;;;;16.90;15.20;;;;;;;14.66;84.21;97907.00;4143229;28;20626;-83
2022/04/26 11:14:03;;;;;;;14.93;13.43;;;;;;;14.63;82.18;97915.16;4146066;28;20732;-83
2022/04/26 11:16:13;;;;;;;18.30;14.97;;;;;;;14.70;82.07;97911.03;4146603;28;20656;-83
2022/04/26 11:18:20;;;;;;;16.23;14.63;;;;;;;14.94;83.72;97911.50;4162942;28;20627;-83
2022/04/26 11:20:25;;;;;;;18.50;15.30;;;;;;;15.36;82.79;97920.84;4146099;28;20679;-83
2022/04/26 11:22:29;;;;;;;18.63;16.73;;;;;;;15.61;80.57;97918.47;4141817;28;20633;-83
2022/04/26 11:29:26;;;;;;;18.05;16.35;;;;;;;15.39;79.06;97908.25;4157850;28;21346;-83
2022/04/26 11:31:40;;;;;;;17.40;15.60;;;;;;;15.37;80.23;97920.69;4144296;28;20700;-83
2022/04/26 11:33:49;;;;;;;16.47;13.93;;;;;;;15.40;78.45;97923.06;4140730;28;20666;-83
2022/04/26 11:35:53;;;;;;;15.20;13.60;;;;;;;15.29;75.78;97917.94;4127737;28;20673;-83
2022/04/26 11:37:59;;;;;;;15.40;13.87;;;;;;;15.27;78.40;97921.66;4147239;28;20843;-83
2022/04/26 11:40:03;;;;;;;18.60;14.47;;;;;;;15.29;81.35;97931.06;4163661;28;20643;-83
2022/04/26 11:42:08;;;;;;;14.53;13.10;;;;;;;15.21;79.55;97928.28;4145899;28;20629;-83
2022/04/26 11:44:12;;;;;;;13.60;11.80;;;;;;;15.16;80.51;97932.28;4147283;28;20653;-83
2022/04/26 11:46:15;;;;;;;10.73;9.63;;;;;;;15.07;78.03;97950.66;4141568;28;20645;-83
2022/04/26 11:48:20;;;;;;;9.60;8.60;;;;;;;15.01;75.66;97946.75;4143660;28;20691;-83
2022/04/26 11:50:25;;;;;;;9.63;8.70;;;;;;;14.87;78.34;97949.78;4141473;28;20640;-83
2022/04/26 11:52:28;;;;;;;9.97;8.97;;;;;;;14.75;77.86;97958.72;4155946;28;20744;-82
2022/04/26 11:54:35;;;;;;;9.03;8.20;;;;;;;14.56;77.16;97955.19;4143540;28;21224;-83
2022/04/26 11:56:38;;;;;;;9.73;7.47;;;;;;;14.43;78.23;97970.31;4155592;28;20656;-83
2022/04/26 11:58:43;;;;;;;7.30;6.60;;;;;;;14.30;77.53;97979.41;4138972;28;20635;-82
2022/04/26 12:00:57;;;;;;;7.97;6.97;;;;;;;14.21;78.71;97986.25;4138954;28;20995;-83
2022/04/26 12:03:01;;;;;;;8.90;6.67;;;;;;;14.14;78.28;97979.84;4136249;28;22833;-82
2022/04/26 12:05:05;;;;;;;7.10;6.40;;;;;;;14.03;77.41;97986.94;4155202;28;20663;-82
2022/04/26 12:07:15;;;;;;;6.70;5.80;;;;;;;13.89;77.35;97987.25;4137906;28;20645;-82
2022/04/26 12:09:19;;;;;;;7.03;5.63;;;;;;;13.81;77.78;97984.41;4137811;28;20648;-82
2022/04/26 12:11:24;;;;;;;5.70;4.97;;;;;;;13.74;77.00;97985.91;4153702;28;20639;-83
2022/04/26 12:13:32;;;;;;;5.60;4.90;;;;;;;13.76;77.21;97988.38;4141850;28;20730;-82
2022/04/26 12:15:38;;;;;;;5.03;4.40;;;;;;;13.66;78.96;97980.44;4144955;28;20641;-82
2022/04/26 12:17:41;;;;;;;5.50;5.00;;;;;;;13.63;78.13;97976.41;4139532;28;20642;-83
2022/04/26 12:19:50;;;;;;;6.27;4.90;;;;;;;13.63;77.99;97968.56;4138212;28;21192;-82
2022/04/26 12:21:55;;;;;;;5.30;4.80;;;;;;;13.66;77.41;97966.50;4155403;28;20701;-82
2022/04/26 12:24:15;;;;;;;6.03;5.43;;;;;;;13.96;79.84;97974.44;4139110;28;20634;-82
2022/04/26 12:26:19;;;;;;;8.53;6.00;;;;;;;14.35;80.00;97979.81;4143230;28;20632;-83
2022/04/26 12:28:22;;;;;;;6.23;5.23;;;;;;;14.76;79.22;97973.53;4128538;28;20645;-83
2022/04/26 12:30:29;;;;;;;6.07;5.17;;;;;;;14.92;75.14;97976.47;4143226;28;21317;-82
2022/04/26 12:32:41;;;;;;;5.20;4.70;;;;;;;15.00;75.32;97976.63;4140504;28;20647;-82
2022/04/26 12:34:49;;;;;;;5.00;3.90;;;;;;;15.07;73.32;97981.19;4141307;28;20634;-82
2022/04/26 12:36:54;;;;;;;5.57;4.57;;;;;;;15.21;75.77;97982.66;4137599;28;20675;-82
2022/04/26 12:39:01;;;;;;;5.37;4.33;;;;;;;15.29;73.26;97981.00;4152098;28;20697;-82
2022/04/26 12:41:06;;;;;;;4.77;4.27;;;;;;;15.24;72.70;97982.38;4140477;28;21350;-82
2022/04/26 12:43:29;;;;;;;5.43;3.97;;;;;;;15.04;69.72;97977.19;4138232;28;20751;-82
2022/04/26 12:45:32;;;;;;;4.70;3.90;;;;;;;14.90;71.12;97974.91;4137298;28;20647;-82
2022/04/26 12:52:32;;;;;;;3.77;3.33;;;;;;;15.02;71.58;97979.09;4140320;28;20634;-82
2022/04/26 12:54:37;;;;;;;3.47;3.10;;;;;;;15.03;69.55;97980.78;4121845;28;20648;-82
2022/04/26 12:56:41;;;;;;;3.43;2.97;;;;;;;15.04;69.24;97983.28;4137772;28;20674;-82
2022/04/26 12:58:45;;;;;;;3.77;2.90;;;;;;;14.97;66.75;97981.31;4152438;28;20643;-82
2022/04/26 13:00:50;;;;;;;3.37;2.67;;;;;;;14.91;66.24;97979.22;4143571;28;20744;-82
2022/04/26 13:02:58;;;;;;;4.10;2.73;;;;;;;14.98;66.52;97988.25;4144593;28;21253;-82
2022/04/26 13:05:09;;;;;;;4.23;2.60;;;;;;;15.15;67.69;97984.00;4140291;28;21062;-82
2022/04/26 13:07:13;;;;;;;3.80;3.00;;;;;;;15.33;68.79;97974.50;4141450;28;20649;-83
2022/04/26 13:09:17;;;;;;;4.73;3.23;;;;;;;15.37;66.83;97980.31;4140885;28;20668;-83
2022/04/26 13:11:20;;;;;;;5.20;3.67;;;;;;;15.41;67.34;97984.31;4145140;28;20719;-83
2022/04/26 13:13:23;;;;;;;5.10;4.57;;;;;;;15.47;66.21;97987.25;4146235;28;20711;-84
2022/04/26 13:15:27;;;;;;;4.70;3.90;;;;;;;15.52;67.64;97985.03;4153679;28;20636;-81
2022/04/26 13:17:30;;;;;;;7.57;6.87;;;;;;;15.59;68.45;97986.97;4140261;28;20657;-82
2022/04/26 13:19:35;;;;;;;8.57;5.97;;;;;;;15.68;69.52;97990.56;4137850;28;21006;-82
2022/04/26 13:21:38;;;;;;;5.83;5.23;;;;;;;15.87;70.64;97996.66;4142427;28;22673;-82
2022/04/26 13:23:43;;;;;;;7.83;6.33;;;;;;;16.03;70.33;98008.28;4122912;28;20650;-82
2022/04/26 13:25:46;;;;;;;7.77;6.43;;;;;;;16.02;70.52;98010.22;4140796;28;21204;-82
2022/04/26 13:27:49;;;;;;;8.47;7.03;;;;;;;15.86;70.31;98004.69;4141605;28;20646;-82
2022/04/26 13:29:52;;;;;;;7.90;6.70;;;;;;;15.72;70.83;98011.19;4140231;28;20641;-82
2022/04/26 13:31:58;;;;;;;7.70;6.60;;;;;;;15.55;71.51;98017.13;4145821;28;20647;-82
2022/04/26 13:34:02;;;;;;;8.77;6.83;;;;;;;15.45;71.48;98014.63;4158629;28;20656;-82
2022/04/26 13:36:27;;;;;;;8.10;7.10;;;;;;;15.36;74.58;98018.09;4139738;28;20688;-82
2022/04/26 13:38:31;;;;;;;9.10;7.30;;;;;;;15.32;71.54;98019.31;4124379;28;20645;-82
2022/04/26 13:40:35;;;;;;;7.93;7.13;;;;;;;15.41;71.80;98015.88;4138760;28;20641;-82
2022/04/26 13:42:39;;;;;;;7.43;6.63;;;;;;;15.50;71.86;98015.91;4138657;28;20991;-82